Time;durP1;ratioP1;P1;durP2;ratioP2;P2;SDS_P1;SDS_P2;PMS_P1;PMS_P2;Temp;Humidity;BMP_temperature;BMP_pressure;BME280_temperature;BME280_humidity;BME280_pressure;Samples;Min_cycle;Max_cycle;Signal;HPM_P1;HPM_P2
2023/10/05 00:02:08;;;;;;;7.50;3.10;;;10.70;83.80;;;;;;4985368;28;20450;-74
2023/10/05 00:04:41;;;;;;;5.93;2.90;;;10.70;83.70;;;;;;4987328;28;20442;-73
2023/10/05 00:07:23;;;;;;;7.40;3.17;;;10.70;83.60;;;;;;4985729;28;20468;-74
2023/10/05 00:09:52;;;;;;;6.50;2.67;;;10.70;83.60;;;;;;4985675;28;20410;-75
2023/10/05 00:12:20;;;;;;;8.30;3.40;;;10.60;83.70;;;;;;4993364;28;21005;-73
2023/10/05 00:14:55;;;;;;;5.20;3.00;;;10.70;83.80;;;;;;4986320;28;20417;-74
2023/10/05 00:17:22;;;;;;;6.83;2.90;;;10.70;84.00;;;;;;4992729;28;20902;-74
2023/10/05 00:19:47;;;;;;;7.47;2.90;;;10.80;83.60;;;;;;4994374;28;20429;-74
2023/10/05 00:22:13;;;;;;;8.73;3.23;;;10.70;83.10;;;;;;4989781;28;20414;-74
2023/10/05 00:24:41;;;;;;;6.60;3.23;;;10.80;83.30;;;;;;4990394;28;20803;-74
2023/10/05 00:27:10;;;;;;;7.63;3.40;;;10.70;83.30;;;;;;4986328;28;20273;-73
2023/10/05 00:29:43;;;;;;;7.30;3.10;;;10.70;83.40;;;;;;4987709;28;20437;-74
2023/10/05 00:32:14;;;;;;;4.90;3.00;;;10.70;83.60;;;;;;4990881;28;20516;-74
2023/10/05 00:34:41;;;;;;;5.37;3.10;;;10.70;83.70;;;;;;4988808;28;20445;-74
2023/10/05 00:37:07;;;;;;;7.03;3.17;;;10.70;83.70;;;;;;4985292;28;21008;-73
2023/10/05 00:39:32;;;;;;;7.73;3.37;;;10.50;84.00;;;;;;4992944;28;20437;-71
2023/10/05 00:42:08;;;;;;;5.83;2.70;;;10.50;84.10;;;;;;4991436;28;20278;-71
2023/10/05 00:44:36;;;;;;;5.93;3.10;;;10.60;83.80;;;;;;4992133;28;20182;-71
2023/10/05 00:47:06;;;;;;;6.27;3.00;;;10.70;83.60;;;;;;4989817;28;20831;-71
2023/10/05 00:52:30;;;;;;;7.90;3.00;;;10.60;83.40;;;;;;4931045;29;20439;-77
2023/10/05 00:55:06;;;;;;;15.80;3.13;;;10.60;83.80;;;;;;4928945;29;20985;-75
2023/10/05 00:57:33;;;;;;;6.00;2.87;;;10.70;83.70;;;;;;4931400;29;20436;-74
2023/10/05 01:02:31;;;;;;;6.03;2.50;;;10.80;83.10;;;;;;4929517;29;20436;-75
2023/10/05 01:05:01;;;;;;;5.30;2.97;;;10.80;83.10;;;;;;4925338;29;20418;-75
2023/10/05 01:07:43;;;;;;;5.83;2.63;;;10.70;83.10;;;;;;4926769;29;20527;-75
2023/10/05 01:12:43;;;;;;;6.40;3.20;;;10.60;83.70;;;;;;4929806;29;20875;-74
2023/10/05 01:15:14;;;;;;;6.50;2.83;;;10.50;83.70;;;;;;4928336;29;20582;-74
2023/10/05 01:17:40;;;;;;;4.57;2.60;;;10.50;83.80;;;;;;4931306;29;20448;-75
2023/10/05 01:22:40;;;;;;;6.23;2.83;;;10.50;84.40;;;;;;4932139;29;20232;-75
2023/10/05 01:25:08;;;;;;;7.80;2.83;;;10.60;84.30;;;;;;4930264;29;20464;-75
2023/10/05 01:27:37;;;;;;;5.33;2.63;;;10.70;83.00;;;;;;4933488;29;20456;-74
2023/10/05 01:30:04;;;;;;;5.93;2.63;;;10.60;82.70;;;;;;4996806;28;20459;-74
2023/10/05 01:32:29;;;;;;;5.33;2.50;;;10.50;83.00;;;;;;4991635;28;20797;-74
2023/10/05 01:34:55;;;;;;;4.27;3.00;;;10.30;83.60;;;;;;4988159;28;20419;-75
2023/10/05 01:37:26;;;;;;;6.93;2.83;;;10.40;83.80;;;;;;4988454;28;20183;-75
2023/10/05 01:39:52;;;;;;;5.20;3.00;;;10.30;83.80;;;;;;4991174;28;20202;-75
2023/10/05 01:42:18;;;;;;;4.97;3.00;;;10.30;84.10;;;;;;4993262;28;20428;-75
2023/10/05 01:44:47;;;;;;;8.53;2.40;;;10.40;84.00;;;;;;4992118;28;20429;-74
2023/10/05 01:47:17;;;;;;;3.80;2.50;;;10.50;83.80;;;;;;4986952;28;20449;-75
2023/10/05 01:49:45;;;;;;;6.33;2.60;;;10.40;83.60;;;;;;4996018;28;20945;-73
2023/10/05 01:52:11;;;;;;;3.93;2.77;;;10.50;83.80;;;;;;4990830;28;20555;-73
2023/10/05 01:54:37;;;;;;;9.30;2.80;;;10.50;83.60;;;;;;4991388;28;20434;-74
2023/10/05 01:57:04;;;;;;;5.43;2.90;;;10.50;83.70;;;;;;4984699;28;20462;-73
2023/10/05 01:59:33;;;;;;;8.13;3.50;;;10.40;83.70;;;;;;4992606;28;20193;-74
2023/10/05 02:02:00;;;;;;;4.70;2.50;;;10.50;84.10;;;;;;4987306;28;20839;-74
2023/10/05 02:04:27;;;;;;;5.83;2.73;;;10.60;84.10;;;;;;4987433;28;20421;-74
2023/10/05 02:06:53;;;;;;;8.07;3.33;;;10.70;84.10;;;;;;4982011;28;20555;-74
2023/10/05 02:09:19;;;;;;;10.80;2.90;;;10.70;84.10;;;;;;4991889;28;21014;-73
2023/10/05 02:11:47;;;;;;;4.87;2.80;;;10.80;83.80;;;;;;4990641;28;20175;-74
2023/10/05 02:14:14;;;;;;;7.63;2.60;;;10.70;83.00;;;;;;4987529;28;20445;-74
2023/10/05 02:16:40;;;;;;;6.50;2.80;;;10.70;82.70;;;;;;4987688;28;20504;-74
2023/10/05 02:19:08;;;;;;;6.90;2.70;;;10.60;82.70;;;;;;4990585;28;20488;-75
2023/10/05 02:21:36;;;;;;;7.43;2.90;;;10.40;83.00;;;;;;4984114;28;20943;-74
2023/10/05 02:24:18;;;;;;;5.97;3.07;;;10.30;83.40;;;;;;4989093;28;20422;-75
2023/10/05 02:29:27;;;;;;;6.13;3.27;;;10.20;83.80;;;;;;4990467;28;20438;-74
2023/10/05 02:34:22;;;;;;;6.60;3.03;;;10.30;83.80;;;;;;4990621;28;20587;-75
2023/10/05 02:36:48;;;;;;;4.10;2.23;;;10.30;83.70;;;;;;4984780;28;20457;-75
2023/10/05 02:39:14;;;;;;;4.80;2.43;;;10.30;83.70;;;;;;4990375;28;20202;-75
2023/10/05 02:41:40;;;;;;;5.63;2.87;;;10.30;83.60;;;;;;4990112;28;20433;-74
2023/10/05 02:46:47;;;;;;;6.13;2.50;;;10.10;83.80;;;;;;4986285;28;20202;-74
2023/10/05 02:49:22;;;;;;;5.87;2.70;;;10.10;84.10;;;;;;4984834;28;20481;-75
2023/10/05 02:51:49;;;;;;;6.27;2.90;;;10.20;84.10;;;;;;4987570;28;20426;-74
2023/10/05 02:54:15;;;;;;;8.40;3.00;;;10.20;84.00;;;;;;4987389;28;20440;-74
2023/10/05 02:56:41;;;;;;;6.20;2.83;;;10.10;84.10;;;;;;4989321;28;20981;-73
2023/10/05 02:59:07;;;;;;;7.80;2.50;;;10.20;84.30;;;;;;4990191;28;20436;-73
2023/10/05 03:01:37;;;;;;;9.47;2.90;;;10.20;84.00;;;;;;4991414;28;20189;-75
2023/10/05 03:04:16;;;;;;;5.57;2.40;;;10.20;83.80;;;;;;4983384;28;20481;-76
2023/10/05 03:06:42;;;;;;;5.50;2.77;;;10.20;83.80;;;;;;4987867;28;20457;-73
2023/10/05 03:09:09;;;;;;;8.50;2.87;;;10.20;83.80;;;;;;4993004;28;20473;-74
2023/10/05 03:11:40;;;;;;;6.23;2.70;;;10.20;83.70;;;;;;4989739;28;20424;-74
2023/10/05 03:14:09;;;;;;;5.33;2.73;;;10.10;83.80;;;;;;4985635;28;20418;-73
2023/10/05 03:16:43;;;;;;;9.00;2.77;;;10.10;84.00;;;;;;4984434;28;20461;-73
2023/10/05 03:19:16;;;;;;;5.27;2.70;;;10.10;84.10;;;;;;4989342;28;20434;-74
2023/10/05 03:21:43;;;;;;;6.20;3.17;;;10.10;84.10;;;;;;4991795;28;20439;-75
2023/10/05 03:24:13;;;;;;;6.93;3.20;;;10.10;84.30;;;;;;4991944;28;20763;-74
2023/10/05 03:26:42;;;;;;;7.90;2.90;;;10.00;84.30;;;;;;4987283;28;20508;-73
2023/10/05 03:29:12;;;;;;;5.20;2.53;;;10.00;84.40;;;;;;4995188;28;20470;-73
2023/10/05 03:31:53;;;;;;;6.30;3.27;;;10.00;84.40;;;;;;4992716;28;20421;-73
2023/10/05 03:34:20;;;;;;;7.80;3.07;;;10.00;84.40;;;;;;4994266;28;20453;-73
2023/10/05 03:36:50;;;;;;;6.73;2.97;;;10.10;84.60;;;;;;4993606;28;20481;-72
2023/10/05 03:39:17;;;;;;;7.07;3.00;;;10.10;84.40;;;;;;4995971;28;20433;-74
2023/10/05 03:41:46;;;;;;;6.93;3.30;;;10.10;84.40;;;;;;4994713;28;20936;-73
2023/10/05 03:44:15;;;;;;;5.80;3.27;;;10.10;84.40;;;;;;4992682;28;20418;-74
2023/10/05 03:46:46;;;;;;;5.60;3.00;;;10.10;84.00;;;;;;4993261;28;20533;-73
2023/10/05 03:49:13;;;;;;;4.97;2.90;;;10.10;84.10;;;;;;4990146;28;20598;-74
2023/10/05 03:51:44;;;;;;;6.10;2.47;;;10.20;84.00;;;;;;4989361;28;20421;-74
2023/10/05 03:54:10;;;;;;;6.40;2.80;;;10.20;83.80;;;;;;4989201;28;20501;-74
2023/10/05 03:56:36;;;;;;;5.90;2.40;;;10.10;83.80;;;;;;4992075;28;20583;-75
2023/10/05 03:59:02;;;;;;;5.67;2.73;;;10.10;83.80;;;;;;4991615;28;20185;-73
2023/10/05 04:01:28;;;;;;;7.87;2.90;;;10.30;84.30;;;;;;4994691;28;20409;-73
2023/10/05 04:03:54;;;;;;;7.37;2.90;;;10.40;83.60;;;;;;4990822;28;20525;-75
2023/10/05 04:06:20;;;;;;;5.10;2.77;;;10.40;83.30;;;;;;4988216;28;20540;-74
2023/10/05 04:08:48;;;;;;;9.70;3.33;;;10.40;83.40;;;;;;4993899;28;20481;-74
2023/10/05 04:11:15;;;;;;;11.53;3.03;;;10.40;83.10;;;;;;4992002;28;20595;-74
2023/10/05 04:13:41;;;;;;;5.90;3.10;;;10.40;83.30;;;;;;4994365;28;20420;-75
2023/10/05 04:16:11;;;;;;;5.90;3.57;;;10.40;83.60;;;;;;4988426;28;20449;-75
2023/10/05 04:18:38;;;;;;;6.07;3.03;;;10.50;83.60;;;;;;4991871;28;21098;-73
2023/10/05 04:21:05;;;;;;;4.97;2.73;;;10.60;83.30;;;;;;4991346;28;20950;-73
2023/10/05 04:23:30;;;;;;;4.50;3.20;;;10.60;83.10;;;;;;4993469;28;20521;-74
2023/10/05 04:25:56;;;;;;;5.37;2.77;;;10.70;83.10;;;;;;4988636;28;20550;-73
2023/10/05 04:28:35;;;;;;;4.27;2.90;;;10.70;82.80;;;;;;4990936;28;20225;-73
2023/10/05 04:31:01;;;;;;;5.50;2.83;;;10.60;82.80;;;;;;4992545;28;20414;-74
2023/10/05 04:33:27;;;;;;;6.40;3.27;;;10.50;82.80;;;;;;4990165;28;20457;-73
2023/10/05 04:35:53;;;;;;;6.17;3.03;;;10.40;83.10;;;;;;4988359;28;20468;-75
2023/10/05 04:38:25;;;;;;;8.27;3.30;;;10.50;83.60;;;;;;4994358;28;20513;-74
2023/10/05 04:40:51;;;;;;;5.07;2.70;;;10.50;83.30;;;;;;4988417;28;20422;-76
2023/10/05 04:43:19;;;;;;;4.83;2.90;;;10.50;83.30;;;;;;4991866;28;21036;-74
2023/10/05 04:45:46;;;;;;;7.23;3.00;;;10.60;83.80;;;;;;4986728;28;21017;-74
2023/10/05 04:48:12;;;;;;;7.43;3.10;;;10.60;83.70;;;;;;4993496;28;20559;-74
2023/10/05 04:50:41;;;;;;;9.37;2.80;;;10.70;83.70;;;;;;4984344;28;20476;-74
2023/10/05 04:53:09;;;;;;;6.53;3.03;;;10.80;83.30;;;;;;4991846;28;20457;-73
2023/10/05 04:55:41;;;;;;;5.43;2.80;;;10.80;82.70;;;;;;4991626;28;20457;-74
2023/10/05 04:58:30;;;;;;;9.27;2.87;;;10.80;82.50;;;;;;4993853;28;20433;-73
2023/10/05 05:03:48;;;;;;;4.70;3.00;;;10.50;83.00;;;;;;4996934;28;20434;-72
2023/10/05 05:06:14;;;;;;;4.73;2.80;;;10.40;83.30;;;;;;4985661;28;21151;-74
2023/10/05 05:08:40;;;;;;;6.47;3.30;;;10.40;83.70;;;;;;4990871;28;20469;-75
2023/10/05 05:11:11;;;;;;;7.80;2.73;;;10.40;83.60;;;;;;4990459;28;20426;-74
2023/10/05 05:13:38;;;;;;;5.70;2.80;;;10.40;83.60;;;;;;4993797;28;20425;-75
2023/10/05 05:16:05;;;;;;;10.27;3.37;;;10.50;83.70;;;;;;4985292;28;20469;-73
2023/10/05 05:18:31;;;;;;;5.63;3.30;;;10.40;83.70;;;;;;4994517;28;20508;-74
2023/10/05 05:20:57;;;;;;;8.13;3.50;;;10.50;84.00;;;;;;4993340;28;20432;-75
2023/10/05 05:23:23;;;;;;;5.77;3.40;;;10.50;84.10;;;;;;4994373;28;20485;-73
2023/10/05 05:25:51;;;;;;;6.07;3.03;;;10.50;84.10;;;;;;4990750;28;20203;-75
2023/10/05 05:28:17;;;;;;;4.40;2.83;;;10.50;84.10;;;;;;4989384;28;20302;-75
2023/10/05 05:30:43;;;;;;;4.00;2.80;;;10.60;83.60;;;;;;4992566;28;20524;-73
2023/10/05 05:33:11;;;;;;;4.20;2.43;;;10.70;83.00;;;;;;4988367;28;20290;-73
2023/10/05 05:35:40;;;;;;;7.67;3.53;;;10.60;82.70;;;;;;4986757;28;20466;-74
2023/10/05 05:38:09;;;;;;;5.67;2.83;;;10.60;83.10;;;;;;4985584;28;20798;-75
2023/10/05 05:40:36;;;;;;;7.90;3.60;;;10.50;83.30;;;;;;4990726;28;20472;-73
2023/10/05 05:43:07;;;;;;;4.17;2.77;;;10.50;83.30;;;;;;4986420;28;20407;-71
2023/10/05 05:45:34;;;;;;;5.40;3.40;;;10.50;83.30;;;;;;4991684;28;21330;-72
2023/10/05 05:48:00;;;;;;;4.10;2.93;;;10.50;83.60;;;;;;4985342;28;20473;-71
2023/10/05 05:50:29;;;;;;;10.03;3.57;;;10.50;83.60;;;;;;4991537;28;20421;-73
2023/10/05 05:52:56;;;;;;;8.90;4.20;;;10.50;83.30;;;;;;4988306;28;20202;-71
2023/10/05 05:55:22;;;;;;;7.00;3.30;;;10.60;83.30;;;;;;4989428;28;20865;-72
2023/10/05 05:57:50;;;;;;;10.47;3.57;;;10.70;83.00;;;;;;4986079;28;20422;-70
2023/10/05 06:00:18;;;;;;;6.60;3.10;;;10.70;82.80;;;;;;4988354;28;21482;-71
2023/10/05 06:02:44;;;;;;;23.57;4.33;;;10.70;83.00;;;;;;4989238;28;20422;-70
2023/10/05 06:05:11;;;;;;;12.73;4.73;;;10.70;83.10;;;;;;4989493;28;20465;-71
2023/10/05 06:07:41;;;;;;;5.40;3.00;;;10.70;83.10;;;;;;4988111;28;20552;-72
2023/10/05 06:10:12;;;;;;;13.13;3.43;;;10.70;83.30;;;;;;4985282;28;20722;-71
2023/10/05 06:12:39;;;;;;;6.23;3.33;;;10.70;82.80;;;;;;4992463;28;20461;-70
2023/10/05 06:15:05;;;;;;;7.60;4.17;;;10.60;83.00;;;;;;4988520;28;20438;-71
2023/10/05 06:17:32;;;;;;;7.73;3.63;;;10.70;83.10;;;;;;4991996;28;20417;-70
2023/10/05 06:19:58;;;;;;;7.80;3.77;;;10.70;83.10;;;;;;4987350;28;20453;-72
2023/10/05 06:22:25;;;;;;;8.73;3.70;;;10.80;83.40;;;;;;4996903;28;20931;-71
2023/10/05 06:24:51;;;;;;;8.43;4.00;;;10.80;82.50;;;;;;4987777;28;20422;-72
2023/10/05 06:27:16;;;;;;;10.63;3.87;;;10.80;82.70;;;;;;4992822;28;20442;-73
2023/10/05 06:29:42;;;;;;;5.37;3.30;;;10.80;82.50;;;;;;4983457;28;20219;-73
2023/10/05 06:32:08;;;;;;;7.87;4.13;;;10.80;82.70;;;;;;4989945;28;20183;-72
2023/10/05 06:34:37;;;;;;;10.73;3.83;;;10.80;82.50;;;;;;4982061;28;20215;-73
2023/10/05 06:37:03;;;;;;;7.30;3.30;;;10.80;82.50;;;;;;4981921;28;20457;-73
2023/10/05 06:39:30;;;;;;;9.57;3.50;;;10.80;82.50;;;;;;4991240;28;20877;-74
2023/10/05 06:41:57;;;;;;;5.90;3.33;;;10.80;82.50;;;;;;4992139;28;20798;-73
2023/10/05 06:44:23;;;;;;;7.50;3.60;;;10.80;82.50;;;;;;4994767;28;20422;-73
2023/10/05 06:46:49;;;;;;;7.67;4.17;;;10.80;82.70;;;;;;4993882;28;21021;-73
2023/10/05 06:49:15;;;;;;;9.13;3.93;;;10.80;82.70;;;;;;4993623;28;20509;-74
2023/10/05 06:51:45;;;;;;;7.73;3.00;;;10.80;82.70;;;;;;4991949;28;20457;-73
2023/10/05 06:54:11;;;;;;;8.07;3.50;;;10.90;82.70;;;;;;4991015;28;20461;-72
2023/10/05 06:56:37;;;;;;;7.73;3.57;;;10.90;82.50;;;;;;4987246;28;20504;-72
2023/10/05 06:59:04;;;;;;;5.40;3.60;;;11.00;82.70;;;;;;4988534;28;20426;-73
2023/10/05 07:01:34;;;;;;;6.90;3.80;;;11.10;82.40;;;;;;4991005;28;20223;-74
2023/10/05 07:04:00;;;;;;;10.77;3.13;;;11.20;81.90;;;;;;4985061;28;20434;-72
2023/10/05 07:06:29;;;;;;;9.10;3.90;;;11.20;81.80;;;;;;4986400;28;20453;-72
2023/10/05 07:08:55;;;;;;;10.03;3.80;;;11.30;81.40;;;;;;4986100;28;20556;-73
2023/10/05 07:11:22;;;;;;;8.90;4.20;;;11.30;81.50;;;;;;4987109;28;21008;-73
2023/10/05 07:13:48;;;;;;;10.50;3.50;;;11.40;81.40;;;;;;4992913;28;20448;-73
2023/10/05 07:16:15;;;;;;;5.90;3.60;;;11.50;80.90;;;;;;4989871;28;20469;-72
2023/10/05 07:18:40;;;;;;;10.83;3.60;;;11.60;80.60;;;;;;4994760;28;20798;-73
2023/10/05 07:21:08;;;;;;;6.80;3.70;;;11.60;80.90;;;;;;4990097;28;20437;-72
2023/10/05 07:23:36;;;;;;;10.10;4.07;;;11.80;80.30;;;;;;4985213;28;20181;-75
2023/10/05 07:26:03;;;;;;;8.03;4.00;;;11.80;80.00;;;;;;4988081;28;20493;-74
2023/10/05 07:28:29;;;;;;;6.90;3.27;;;11.90;79.90;;;;;;4990231;28;20508;-73
2023/10/05 07:30:56;;;;;;;9.77;3.77;;;12.00;80.30;;;;;;4989576;28;20446;-73
2023/10/05 07:33:22;;;;;;;6.60;3.73;;;12.00;79.90;;;;;;4990773;28;20198;-73
2023/10/05 07:35:47;;;;;;;7.13;3.87;;;12.00;79.60;;;;;;4987258;28;20457;-75
2023/10/05 07:38:14;;;;;;;10.93;3.67;;;12.10;79.50;;;;;;4989959;28;20301;-74
2023/10/05 07:40:41;;;;;;;9.43;4.07;;;12.30;79.50;;;;;;4988759;28;20185;-74
2023/10/05 07:43:08;;;;;;;9.37;3.80;;;12.50;78.00;;;;;;4990596;28;20452;-72
2023/10/05 07:45:34;;;;;;;6.27;4.20;;;12.50;77.40;;;;;;4984614;28;20521;-74
2023/10/05 07:48:00;;;;;;;14.60;4.90;;;12.70;77.40;;;;;;4990519;28;20472;-75
2023/10/05 07:50:26;;;;;;;17.37;4.57;;;12.80;77.40;;;;;;4985981;28;20413;-74
2023/10/05 07:52:52;;;;;;;10.53;4.60;;;13.00;76.70;;;;;;4989248;28;20448;-73
2023/10/05 07:55:18;;;;;;;9.67;4.80;;;13.10;75.90;;;;;;4987814;28;20977;-73
2023/10/05 07:57:44;;;;;;;9.27;4.70;;;13.10;75.70;;;;;;4988663;28;20535;-74
2023/10/05 08:00:13;;;;;;;8.90;4.80;;;13.20;75.70;;;;;;4985372;28;20214;-75
2023/10/05 08:02:40;;;;;;;10.80;4.60;;;13.30;75.50;;;;;;4986950;28;20426;-74
2023/10/05 08:05:07;;;;;;;11.47;4.30;;;13.40;74.80;;;;;;4981338;28;21032;-75
2023/10/05 08:07:32;;;;;;;9.80;4.70;;;13.50;74.30;;;;;;4988439;28;20477;-73
2023/10/05 08:09:59;;;;;;;7.40;4.40;;;13.50;74.30;;;;;;4990275;28;20436;-73
2023/10/05 08:12:27;;;;;;;9.00;4.50;;;13.50;74.90;;;;;;4993762;28;20566;-75
2023/10/05 08:14:54;;;;;;;11.33;4.83;;;13.60;74.80;;;;;;4989305;28;20425;-74
2023/10/05 08:17:20;;;;;;;13.73;4.70;;;13.80;74.80;;;;;;4990243;28;20453;-76
2023/10/05 08:19:46;;;;;;;13.50;4.90;;;14.00;74.20;;;;;;4991311;28;20437;-74
2023/10/05 08:22:11;;;;;;;8.33;5.07;;;14.10;72.90;;;;;;4993035;28;20424;-73
2023/10/05 08:24:37;;;;;;;8.20;4.60;;;14.20;72.40;;;;;;4992839;28;20247;-73
2023/10/05 08:27:03;;;;;;;7.57;4.80;;;14.30;72.10;;;;;;4990025;28;20214;-74
2023/10/05 08:29:29;;;;;;;13.53;4.93;;;14.30;72.00;;;;;;4995625;28;20224;-74
2023/10/05 08:31:54;;;;;;;10.20;4.73;;;14.10;71.80;;;;;;4994442;28;20186;-74
2023/10/05 08:34:22;;;;;;;9.30;4.43;;;14.10;72.60;;;;;;4993429;28;20252;-74
2023/10/05 08:36:49;;;;;;;8.30;4.10;;;14.20;72.10;;;;;;4988130;28;20215;-73
2023/10/05 08:39:21;;;;;;;10.57;4.90;;;14.20;72.00;;;;;;4988990;28;20443;-74
2023/10/05 08:41:48;;;;;;;7.30;4.30;;;14.30;71.80;;;;;;4984189;28;20431;-74
2023/10/05 08:44:20;;;;;;;8.73;4.73;;;14.30;71.70;;;;;;4990693;28;21003;-72
2023/10/05 08:46:46;;;;;;;9.43;4.70;;;14.40;71.70;;;;;;4991538;28;21290;-73
2023/10/05 08:49:15;;;;;;;11.03;5.00;;;14.50;71.30;;;;;;4990427;28;20471;-74
2023/10/05 08:51:41;;;;;;;9.63;4.57;;;14.50;71.10;;;;;;4987163;28;20269;-73
2023/10/05 08:54:11;;;;;;;9.50;4.70;;;14.50;71.40;;;;;;4989876;28;20439;-74
2023/10/05 08:56:40;;;;;;;13.47;5.73;;;14.80;71.00;;;;;;4993536;28;20524;-76
2023/10/05 08:59:13;;;;;;;11.60;4.70;;;15.00;69.90;;;;;;4985424;28;20506;-74
2023/10/05 09:01:42;;;;;;;16.43;4.33;;;15.10;69.50;;;;;;4993521;28;20422;-75
2023/10/05 09:04:23;;;;;;;9.03;4.73;;;15.30;69.20;;;;;;4997259;28;20438;-74
2023/10/05 09:06:57;;;;;;;13.17;5.00;;;15.40;68.80;;;;;;4985894;28;20473;-74
2023/10/05 09:09:38;;;;;;;16.00;5.40;;;15.40;68.60;;;;;;4993338;28;20616;-76
2023/10/05 09:12:17;;;;;;;11.33;5.97;;;15.60;68.20;;;;;;4993386;28;20435;-75
2023/10/05 09:14:43;;;;;;;12.10;5.37;;;15.60;67.90;;;;;;4993794;28;20429;-73
2023/10/05 09:17:09;;;;;;;12.47;4.77;;;15.60;68.20;;;;;;4995155;28;20593;-74
2023/10/05 09:19:37;;;;;;;9.73;5.73;;;15.80;67.60;;;;;;4993929;28;20480;-74
2023/10/05 09:22:14;;;;;;;9.47;4.67;;;15.90;67.60;;;;;;4994242;28;20225;-73
2023/10/05 09:24:50;;;;;;;11.27;4.73;;;16.00;67.50;;;;;;4985598;28;20432;-72
2023/10/05 09:27:17;;;;;;;13.87;4.70;;;16.00;67.60;;;;;;4988329;28;20506;-73
2023/10/05 09:29:43;;;;;;;8.40;4.43;;;16.10;67.00;;;;;;4993066;28;20504;-72
2023/10/05 09:32:25;;;;;;;9.90;4.57;;;16.20;66.70;;;;;;4993511;28;20519;-73
2023/10/05 09:34:55;;;;;;;9.20;5.53;;;16.30;67.00;;;;;;4991860;28;20426;-73
2023/10/05 09:37:24;;;;;;;14.13;5.13;;;16.50;66.60;;;;;;4991206;28;20432;-74
2023/10/05 09:39:53;;;;;;;13.40;4.43;;;16.50;66.10;;;;;;4992569;28;20531;-73
2023/10/05 09:42:26;;;;;;;8.27;4.30;;;16.50;66.60;;;;;;4989884;28;20434;-74
2023/10/05 09:44:53;;;;;;;10.80;4.60;;;16.40;66.70;;;;;;4989344;28;20437;-72
2023/10/05 09:47:35;;;;;;;10.83;4.30;;;16.60;66.60;;;;;;4984963;28;20818;-73
2023/10/05 09:50:15;;;;;;;14.40;3.87;;;16.70;66.10;;;;;;4988464;28;20948;-73
2023/10/05 09:52:43;;;;;;;11.37;4.50;;;16.70;66.00;;;;;;4987015;28;20418;-73
2023/10/05 09:55:18;;;;;;;10.80;4.70;;;16.60;66.00;;;;;;4995686;28;20446;-73
2023/10/05 09:57:51;;;;;;;11.40;4.57;;;16.60;66.00;;;;;;4992096;28;20464;-73
2023/10/05 10:00:47;;;;;;;14.60;5.73;;;16.60;66.30;;;;;;4990094;28;20438;-76
2023/10/05 10:03:15;;;;;;;11.50;4.33;;;16.60;66.30;;;;;;4990464;28;20441;-73
2023/10/05 10:05:59;;;;;;;11.60;4.83;;;16.80;66.10;;;;;;4990725;28;20812;-74
2023/10/05 10:08:29;;;;;;;12.20;5.43;;;17.00;65.40;;;;;;4989281;28;20542;-74
2023/10/05 10:11:08;;;;;;;14.97;5.23;;;16.60;65.40;;;;;;4988721;28;20463;-73
2023/10/05 10:13:39;;;;;;;9.80;4.90;;;16.70;66.00;;;;;;4993803;28;20814;-73
2023/10/05 10:16:21;;;;;;;17.80;5.40;;;16.70;65.80;;;;;;4994749;28;20470;-73
2023/10/05 10:19:03;;;;;;;12.37;4.63;;;16.90;65.80;;;;;;4991611;28;20794;-75
2023/10/05 10:21:46;;;;;;;12.77;4.73;;;17.10;65.30;;;;;;4986902;28;20442;-73
2023/10/05 10:24:17;;;;;;;12.63;5.43;;;17.40;64.70;;;;;;4990049;28;20418;-73
2023/10/05 10:26:44;;;;;;;15.07;4.90;;;17.70;63.70;;;;;;4990524;28;20896;-73
2023/10/05 10:29:11;;;;;;;12.30;5.50;;;17.80;63.80;;;;;;4990849;28;21049;-74
2023/10/05 10:31:47;;;;;;;15.73;4.70;;;17.70;63.70;;;;;;4991305;28;20414;-74
2023/10/05 10:34:33;;;;;;;13.53;4.53;;;17.50;63.80;;;;;;4991597;28;20532;-75
2023/10/05 10:36:59;;;;;;;16.70;5.07;;;17.60;64.10;;;;;;4983399;28;20549;-73
2023/10/05 10:39:27;;;;;;;9.73;4.80;;;17.70;63.50;;;;;;4983722;28;20504;-73
2023/10/05 10:42:12;;;;;;;8.53;4.10;;;17.60;63.80;;;;;;4993912;28;20207;-73
2023/10/05 10:47:15;;;;;;;11.73;4.63;;;17.70;64.10;;;;;;4988864;28;20543;-74
2023/10/05 10:49:59;;;;;;;7.83;4.50;;;17.40;64.10;;;;;;4991124;28;20448;-73
2023/10/05 10:52:25;;;;;;;15.37;6.27;;;17.30;64.80;;;;;;4991752;28;20476;-72
2023/10/05 10:54:57;;;;;;;12.70;5.23;;;17.30;65.00;;;;;;4989996;28;20431;-73
2023/10/05 10:57:23;;;;;;;10.30;4.03;;;17.50;64.70;;;;;;4989788;28;20557;-73
2023/10/05 11:00:44;;;;;;;11.20;4.77;;;17.60;63.80;;;;;;4993505;28;20451;-73
2023/10/05 11:02:54;;;;;;;9.30;4.30;;;17.50;65.00;;;;;;4994861;28;20183;-73
2023/10/05 11:05:24;;;;;;;12.17;4.40;;;17.60;64.40;;;;;;4995817;28;20519;-74
2023/10/05 11:07:50;;;;;;;12.60;4.70;;;17.70;64.20;;;;;;4986122;28;20515;-74
2023/10/05 11:10:19;;;;;;;12.30;4.27;;;17.80;63.50;;;;;;4985059;28;20425;-74
2023/10/05 11:12:53;;;;;;;9.70;3.60;;;18.00;63.20;;;;;;4991310;28;20593;-73
2023/10/05 11:15:22;;;;;;;12.33;4.80;;;18.20;63.40;;;;;;4988358;28;20618;-74
2023/10/05 11:17:55;;;;;;;11.70;4.47;;;18.10;62.90;;;;;;4991502;28;20472;-73
2023/10/05 11:20:26;;;;;;;11.73;4.37;;;18.20;61.60;;;;;;4986892;28;20437;-74
2023/10/05 11:23:03;;;;;;;10.53;4.87;;;18.20;63.50;;;;;;4992789;28;20417;-74
2023/10/05 11:25:34;;;;;;;9.90;3.93;;;18.00;64.40;;;;;;4981801;28;20492;-73
2023/10/05 11:28:00;;;;;;;10.40;4.23;;;17.90;64.40;;;;;;4989328;28;20471;-74
2023/10/05 11:30:41;;;;;;;9.80;4.20;;;17.70;64.70;;;;;;4984737;28;20946;-74
2023/10/05 11:33:15;;;;;;;7.50;3.70;;;17.70;65.00;;;;;;4984960;28;20462;-74
2023/10/05 11:35:48;;;;;;;9.40;3.50;;;17.80;64.50;;;;;;4979126;28;20453;-74
2023/10/05 11:38:19;;;;;;;12.13;4.67;;;18.00;64.40;;;;;;4985204;28;20753;-73
2023/10/05 11:40:55;;;;;;;11.97;4.23;;;17.90;64.40;;;;;;4990506;28;20427;-72
2023/10/05 11:43:22;;;;;;;11.30;5.20;;;18.00;64.10;;;;;;4991873;28;20848;-73
2023/10/05 11:46:23;;;;;;;7.70;4.20;;;17.80;64.20;;;;;;4987339;28;20461;-73
2023/10/05 11:48:55;;;;;;;9.20;3.43;;;17.90;64.40;;;;;;4983946;28;20501;-75
2023/10/05 11:51:35;;;;;;;16.57;4.57;;;18.00;64.10;;;;;;4991679;28;20422;-74
2023/10/05 11:54:01;;;;;;;11.67;3.63;;;17.90;64.10;;;;;;4990883;28;20454;-73
2023/10/05 11:56:30;;;;;;;8.60;3.60;;;18.10;63.80;;;;;;4996430;28;20490;-73
2023/10/05 11:58:57;;;;;;;12.80;4.30;;;18.10;63.80;;;;;;4995538;28;20238;-75
2023/10/05 12:01:24;;;;;;;9.03;3.90;;;18.40;63.80;;;;;;4993022;28;20449;-75
2023/10/05 12:03:50;;;;;;;8.77;3.80;;;18.30;62.90;;;;;;4989819;28;20782;-74
2023/10/05 12:06:23;;;;;;;9.30;3.93;;;18.20;63.40;;;;;;4989000;28;20454;-74
2023/10/05 12:08:53;;;;;;;13.30;4.63;;;18.20;63.10;;;;;;4992819;28;20684;-74
2023/10/05 12:11:25;;;;;;;7.87;3.80;;;18.00;62.90;;;;;;4989130;28;20433;-74
2023/10/05 12:13:56;;;;;;;9.33;4.63;;;17.90;63.40;;;;;;4990119;28;20422;-74
2023/10/05 12:16:34;;;;;;;10.37;3.87;;;17.90;63.50;;;;;;4990013;28;20470;-74
2023/10/05 12:19:13;;;;;;;8.50;3.60;;;17.90;63.70;;;;;;4991462;28;20453;-73
2023/10/05 12:21:45;;;;;;;9.87;3.40;;;17.90;63.90;;;;;;4988704;28;20959;-74
2023/10/05 12:24:11;;;;;;;10.77;4.17;;;17.80;64.10;;;;;;4993702;28;20414;-74
2023/10/05 12:26:39;;;;;;;14.43;3.83;;;17.90;63.70;;;;;;4989720;28;20469;-73
2023/10/05 12:29:12;;;;;;;8.00;3.47;;;17.90;63.40;;;;;;4993537;28;20941;-74
2023/10/05 12:31:38;;;;;;;7.83;3.77;;;17.80;63.80;;;;;;4993707;28;20463;-73
2023/10/05 12:34:08;;;;;;;12.43;3.90;;;17.60;63.80;;;;;;4993494;28;20446;-73
2023/10/05 12:36:39;;;;;;;11.53;3.67;;;17.50;64.40;;;;;;4995026;28;20456;-74
2023/10/05 12:39:10;;;;;;;8.50;4.40;;;17.30;64.80;;;;;;4989892;28;20422;-74
2023/10/05 12:41:41;;;;;;;11.10;4.30;;;17.30;64.80;;;;;;4988719;28;20421;-74
2023/10/05 12:44:09;;;;;;;11.43;3.57;;;17.40;65.00;;;;;;4993857;28;21161;-73
2023/10/05 12:46:41;;;;;;;9.83;4.00;;;17.30;65.00;;;;;;4992158;28;20453;-73
2023/10/05 12:49:11;;;;;;;8.30;3.43;;;17.20;65.00;;;;;;4992872;28;20503;-73
2023/10/05 12:51:38;;;;;;;9.63;4.60;;;17.20;65.30;;;;;;4994436;28;20437;-74
2023/10/05 12:54:28;;;;;;;12.07;4.40;;;17.20;65.30;;;;;;4989030;28;20425;-76
2023/10/05 12:56:55;;;;;;;21.00;4.23;;;17.20;65.30;;;;;;4987635;28;20529;-74
2023/10/05 12:59:24;;;;;;;10.80;4.47;;;17.10;65.30;;;;;;4992027;28;20422;-76
2023/10/05 13:01:50;;;;;;;10.30;4.20;;;17.10;65.60;;;;;;4992791;28;20476;-73
2023/10/05 13:04:17;;;;;;;7.50;3.73;;;17.20;65.60;;;;;;4986673;28;20513;-75
2023/10/05 13:06:46;;;;;;;13.47;4.73;;;17.10;65.40;;;;;;4990754;28;20958;-73
2023/10/05 13:09:13;;;;;;;12.47;3.50;;;17.10;65.40;;;;;;4992411;28;20984;-73
2023/10/05 13:11:40;;;;;;;9.60;3.40;;;17.10;65.60;;;;;;4999357;28;20991;-74
2023/10/05 13:14:08;;;;;;;11.50;4.13;;;17.00;65.60;;;;;;5003491;28;20418;-73
2023/10/05 13:16:35;;;;;;;13.50;4.07;;;17.00;65.70;;;;;;4996436;28;20483;-73
2023/10/05 13:19:03;;;;;;;7.30;3.43;;;16.90;65.60;;;;;;4992169;28;20488;-73